Terminal Aerodrome Forecast
Issued by NWS

Home | Current Version | Previous Version | Text Only | Print | Product List | Glossary On
Versions: 1 2 3 4 5 6 7 8 9 10 11 12 13 14 15 16 17 18 19 20 21 22 23
472
FTUS43 KDLH 261502 AAB
TAFHIB
TAF AMD
KHIB 261502Z 2615/2712 33009KT P6SM BKN017 OVC030
      TEMPO 2615/2616 3/4SM -SN BR VV018
     FM261600 31009KT P6SM SCT030 BKN040
     FM262200 30007KT P6SM SCT040
     FM270200 VRB02KT P6SM SCT050 BKN100
     FM270800 VRB03KT P6SM SCT015 BKN040 PROB30 2709/2712 5SM -SN
      BKN015 OVC040=

USA.gov is the U.S. government's official web portal to all federal, state and local government web resources and services.